Time;durP1;ratioP1;P1;durP2;ratioP2;P2;SDS_P1;SDS_P2;PMS_P1;PMS_P2;Temp;Humidity;BMP_temperature;BMP_pressure;BME280_temperature;BME280_humidity;BME280_pressure;Samples;Min_cycle;Max_cycle;Signal;HPM_P1;HPM_P2
2022/06/07 00:01:17;;;;;;;6.87;2.80;;;;;;;21.69;60.98;98027.41;5371574;26;20059;-79
2022/06/07 00:03:45;;;;;;;6.35;2.75;;;;;;;21.88;60.48;98029.22;5391830;26;20108;-79
2022/06/07 00:06:12;;;;;;;6.97;3.22;;;;;;;21.70;61.13;98042.22;5371893;26;20498;-79
2022/06/07 00:08:40;;;;;;;7.53;2.87;;;;;;;21.98;60.40;98031.88;5391531;26;20455;-79
2022/06/07 00:11:07;;;;;;;5.87;2.87;;;;;;;22.80;57.63;98033.06;5391814;26;20104;-79
2022/06/07 00:13:34;;;;;;;9.05;3.60;;;;;;;22.45;59.35;98035.50;5391789;26;20420;-79
2022/06/07 00:16:01;;;;;;;7.70;2.80;;;;;;;22.36;59.96;98026.66;5391340;26;20119;-79
2022/06/07 00:18:28;;;;;;;8.85;3.17;;;;;;;22.27;60.65;98027.47;5371541;26;20098;-79
2022/06/07 00:20:55;;;;;;;6.85;3.17;;;;;;;22.13;60.81;98020.84;5391804;26;20412;-79
2022/06/07 00:23:22;;;;;;;8.02;2.90;;;;;;;22.50;60.27;98022.75;5371532;26;20091;-79
2022/06/07 00:25:51;;;;;;;5.57;2.75;;;;;;;22.71;58.75;98019.94;5391811;26;20102;-79
2022/06/07 00:28:20;;;;;;;8.07;2.87;;;;;;;22.95;57.75;98012.41;5391473;26;20097;-79
2022/06/07 00:30:47;;;;;;;6.12;3.00;;;;;;;23.33;56.11;98008.78;5391613;26;20071;-79
2022/06/07 00:33:15;;;;;;;7.18;3.00;;;;;;;23.67;54.92;98018.75;5371613;26;20124;-79
2022/06/07 00:35:42;;;;;;;4.93;2.50;;;;;;;23.69;55.10;98015.97;5391792;26;20451;-79
2022/06/07 00:38:09;;;;;;;5.62;2.50;;;;;;;23.79;54.23;98014.91;5391517;26;20533;-79
2022/06/07 00:40:36;;;;;;;13.57;3.83;;;;;;;23.36;55.13;98013.75;5391705;26;20075;-79
2022/06/07 00:43:03;;;;;;;9.20;2.85;;;;;;;23.66;53.91;98012.66;5391769;26;20099;-79
2022/06/07 00:45:31;;;;;;;8.70;2.62;;;;;;;23.01;55.70;98006.59;5391718;26;20138;-79
2022/06/07 00:47:58;;;;;;;5.90;2.67;;;;;;;22.54;56.99;98008.34;5391466;26;20060;-79
2022/06/07 00:50:40;;;;;;;6.43;2.97;;;;;;;22.73;56.82;98010.09;5391563;26;20111;-79
2022/06/07 00:53:26;;;;;;;5.87;3.00;;;;;;;22.76;56.39;98000.16;5371736;26;20076;-79
2022/06/07 00:55:54;;;;;;;6.00;2.70;;;;;;;23.04;55.54;97997.56;5391622;26;20169;-79
2022/06/07 00:58:22;;;;;;;8.05;3.42;;;;;;;23.64;53.36;98003.25;5391275;26;20115;-79
2022/06/07 01:00:49;;;;;;;11.00;2.97;;;;;;;22.48;56.90;97998.41;5391724;26;20064;-79
2022/06/07 01:03:19;;;;;;;15.90;5.07;;;;;;;22.79;55.90;97997.22;5391622;26;20115;-79
2022/06/07 01:05:47;;;;;;;5.25;2.97;;;;;;;23.33;53.98;97997.44;5391553;26;20063;-79
2022/06/07 01:11:00;;;;;;;7.62;3.08;;;;;;;23.41;53.32;97987.00;5391582;26;20115;-79
2022/06/07 01:13:31;;;;;;;10.45;3.42;;;;;;;22.42;56.58;97975.28;5391571;26;20418;-79
2022/06/07 01:16:01;;;;;;;10.90;3.67;;;;;;;22.38;57.04;97974.75;5391452;26;20058;-79
2022/06/07 01:18:31;;;;;;;9.88;3.20;;;;;;;22.55;56.51;97973.22;5391270;26;20098;-79
2022/06/07 01:21:18;;;;;;;8.45;3.33;;;;;;;23.05;54.28;97971.09;5371511;26;20107;-79
2022/06/07 01:23:46;;;;;;;;;;;;;;;22.62;55.35;97973.44;5392085;26;20119;-79
2022/06/07 01:26:14;;;;;;;7.43;2.80;;;;;;;21.66;59.61;97970.75;5391519;26;20018;-79
2022/06/07 01:28:41;;;;;;;10.05;3.20;;;;;;;22.27;57.68;97960.94;5391360;26;20047;-79
2022/06/07 01:31:08;;;;;;;7.55;3.35;;;;;;;21.97;58.48;97962.75;5391642;26;20082;-79
2022/06/07 01:33:35;;;;;;;7.43;3.20;;;;;;;21.53;60.17;97961.47;5391464;26;20116;-79
2022/06/07 01:36:10;;;;;;;7.15;2.87;;;;;;;21.68;60.19;97954.84;5391575;26;20126;-79
2022/06/07 01:38:38;;;;;;;6.20;2.92;;;;;;;22.22;58.28;97956.09;5391384;26;20606;-79
2022/06/07 01:43:53;;;;;;;12.23;3.20;;;;;;;22.72;56.79;97953.22;5391657;26;20069;-79
2022/06/07 01:46:21;;;;;;;8.75;3.03;;;;;;;22.64;56.65;97953.94;5390994;26;20401;-79
2022/06/07 01:48:48;;;;;;;5.85;2.80;;;;;;;22.85;55.36;97950.28;5391158;26;20123;-79
2022/06/07 01:51:16;;;;;;;5.78;2.75;;;;;;;22.75;55.19;97942.41;5391447;26;20060;-79
2022/06/07 01:53:44;;;;;;;5.75;2.70;;;;;;;21.79;57.34;97948.63;5391415;26;20412;-79
2022/06/07 01:56:14;;;;;;;7.50;2.78;;;;;;;21.52;58.59;97949.31;5391457;26;20120;-79
2022/06/07 01:58:43;;;;;;;5.97;2.80;;;;;;;22.42;55.94;97941.94;5391214;26;20074;-79
2022/06/07 02:01:11;;;;;;;5.40;2.72;;;;;;;22.51;55.80;97940.28;5371332;26;20135;-79
2022/06/07 02:03:39;;;;;;;7.03;2.80;;;;;;;21.87;57.29;97930.41;5391459;26;20056;-79
2022/06/07 02:06:10;;;;;;;9.20;3.08;;;;;;;22.28;56.26;97939.78;5391526;26;20047;-79
2022/06/07 02:08:37;;;;;;;7.57;3.22;;;;;;;21.43;59.46;97937.00;5391236;26;20040;-79
2022/06/07 02:11:10;;;;;;;7.22;2.80;;;;;;;21.58;58.36;97938.25;5391393;26;20154;-79
2022/06/07 02:13:37;;;;;;;7.60;2.87;;;;;;;21.07;59.84;97941.88;5391493;26;20064;-79
2022/06/07 02:16:04;;;;;;;7.18;2.70;;;;;;;21.87;57.04;97938.28;5390981;26;20055;-79
2022/06/07 02:18:32;;;;;;;7.22;2.70;;;;;;;21.59;57.72;97932.91;5391302;26;20049;-79
2022/06/07 02:21:00;;;;;;;8.00;2.72;;;;;;;21.77;57.20;97933.00;5352545;26;20115;-79
2022/06/07 02:23:28;;;;;;;5.93;2.92;;;;;;;21.47;58.33;97927.87;5391317;26;20106;-79
2022/06/07 02:25:58;;;;;;;10.70;3.50;;;;;;;21.23;59.02;97929.06;5391578;26;20787;-79
2022/06/07 02:28:29;;;;;;;8.50;2.80;;;;;;;20.83;60.57;97923.00;5391105;26;20051;-79
2022/06/07 02:30:58;;;;;;;9.15;2.67;;;;;;;21.39;59.32;97925.97;5391231;26;20119;-79
2022/06/07 02:33:26;;;;;;;7.20;3.00;;;;;;;21.69;57.94;97922.38;5371288;26;20078;-79
2022/06/07 02:35:54;;;;;;;7.53;2.70;;;;;;;21.83;57.34;97915.88;5371095;26;20119;-79
2022/06/07 02:38:23;;;;;;;6.45;2.67;;;;;;;21.47;57.71;97914.75;5392036;26;20047;-79
2022/06/07 02:40:51;;;;;;;6.22;2.70;;;;;;;22.18;55.32;97915.31;5392329;26;20079;-79
2022/06/07 02:43:19;;;;;;;8.57;2.83;;;;;;;21.93;55.94;97914.91;5391141;26;20044;-78
2022/06/07 02:45:46;;;;;;;7.95;2.75;;;;;;;22.08;55.46;97915.34;5371268;26;20065;-79
2022/06/07 02:48:13;;;;;;;5.15;2.47;;;;;;;22.25;54.92;97915.59;5391019;26;20048;-79
2022/06/07 02:50:41;;;;;;;7.87;2.72;;;;;;;21.97;56.15;97919.87;5391013;26;20076;-79
2022/06/07 02:53:07;;;;;;;6.97;2.42;;;;;;;21.55;57.29;97928.03;5391303;26;20150;-79
2022/06/07 02:55:34;;;;;;;6.97;2.95;;;;;;;21.74;57.06;97933.31;5391230;26;20059;-79
2022/06/07 02:58:02;;;;;;;6.35;2.65;;;;;;;21.95;57.09;97933.16;5390414;26;20075;-79
2022/06/07 03:00:28;;;;;;;6.95;2.72;;;;;;;22.13;56.44;97934.16;5390879;26;20065;-79
2022/06/07 03:02:55;;;;;;;6.07;2.50;;;;;;;21.95;56.29;97933.97;5391158;26;20115;-79
2022/06/07 03:05:23;;;;;;;6.28;2.50;;;;;;;21.51;57.78;97929.28;5391086;26;20445;-79
2022/06/07 03:07:50;;;;;;;7.35;2.92;;;;;;;21.43;58.27;97937.00;5390980;26;20050;-79
2022/06/07 03:10:18;;;;;;;7.28;2.80;;;;;;;20.77;60.53;97933.06;5371074;26;20473;-79
2022/06/07 03:12:45;;;;;;;6.12;2.80;;;;;;;21.25;58.95;97932.38;5391146;26;20094;-79
2022/06/07 03:15:13;;;;;;;5.93;2.58;;;;;;;21.56;58.21;97933.16;5391203;26;20110;-79
2022/06/07 03:17:41;;;;;;;8.23;2.80;;;;;;;21.57;58.45;97933.97;5390738;26;20048;-79
2022/06/07 03:20:09;;;;;;;5.47;2.40;;;;;;;22.17;55.94;97932.06;5370906;26;20074;-79
2022/06/07 03:22:36;;;;;;;6.50;2.70;;;;;;;22.13;55.20;97931.53;5370936;26;20070;-79
2022/06/07 03:25:07;;;;;;;8.45;2.85;;;;;;;22.21;55.30;97933.41;5390871;26;20099;-79
2022/06/07 03:27:35;;;;;;;6.82;2.72;;;;;;;22.28;55.08;97928.44;5391094;26;20386;-79
2022/06/07 03:30:05;;;;;;;8.18;2.92;;;;;;;22.15;55.37;97924.31;5370799;26;20090;-79
2022/06/07 03:32:36;;;;;;;6.00;2.53;;;;;;;22.66;54.43;97927.50;5371205;26;20063;-79
2022/06/07 03:35:03;;;;;;;7.28;2.70;;;;;;;22.37;55.00;97928.41;5391010;26;20055;-79
2022/06/07 03:37:30;;;;;;;7.47;2.60;;;;;;;22.31;54.79;97922.88;5390877;26;20432;-79
2022/06/07 03:39:57;;;;;;;6.37;2.75;;;;;;;22.38;55.16;97924.81;5390620;26;20135;-79
2022/06/07 03:42:24;;;;;;;6.50;2.42;;;;;;;22.81;55.19;97921.63;5390960;26;20051;-79
2022/06/07 03:44:51;;;;;;;6.50;2.60;;;;;;;23.87;51.57;97928.06;5390918;26;20241;-79
2022/06/07 03:47:18;;;;;;;6.43;2.25;;;;;;;24.12;50.43;97920.34;5390685;26;20112;-80
2022/06/07 03:49:48;;;;;;;5.82;2.20;;;;;;;24.48;49.65;97923.75;5390533;26;20064;-79
2022/06/07 03:52:16;;;;;;;6.10;2.20;;;;;;;24.57;49.45;97911.44;5390747;26;20070;-79
2022/06/07 03:54:43;;;;;;;6.10;2.25;;;;;;;24.76;48.38;97913.81;5390993;26;20418;-80
2022/06/07 03:57:11;;;;;;;6.60;2.20;;;;;;;25.59;46.92;97912.13;5390864;26;20103;-80
2022/06/07 03:59:38;;;;;;;5.43;2.10;;;;;;;26.25;45.42;97913.78;5390309;26;20079;-80
2022/06/07 04:02:05;;;;;;;4.40;2.20;;;;;;;27.03;43.34;97917.63;5390838;26;20128;-80
2022/06/07 04:04:34;;;;;;;18.05;2.55;;;;;;;27.58;42.06;97914.81;5390842;26;20107;-79
2022/06/07 04:09:46;;;;;;;6.03;2.20;;;;;;;28.46;40.22;97911.63;5391439;26;20122;-80
2022/06/07 04:12:16;;;;;;;5.35;2.35;;;;;;;28.95;39.13;97908.44;5391558;26;20104;-79
2022/06/07 04:14:45;;;;;;;4.53;2.20;;;;;;;29.58;37.88;97906.13;5391578;26;20106;-80
2022/06/07 04:17:13;;;;;;;3.37;2.10;;;;;;;29.85;37.71;97904.53;5391514;26;20103;-80
2022/06/07 04:19:40;;;;;;;3.05;1.85;;;;;;;30.42;36.80;97907.06;5391584;26;20067;-80
2022/06/07 04:22:08;;;;;;;5.57;2.00;;;;;;;31.04;35.44;97902.69;5371616;26;20076;-80
2022/06/07 04:24:35;;;;;;;6.40;2.40;;;;;;;31.55;34.38;97902.25;5371793;26;20115;-80
2022/06/07 04:27:02;;;;;;;5.72;2.30;;;;;;;31.99;33.56;97904.37;5391863;26;20103;-80
2022/06/07 04:29:29;;;;;;;6.72;2.20;;;;;;;32.36;33.71;97900.28;5391280;26;20078;-80
2022/06/07 04:31:56;;;;;;;5.72;2.17;;;;;;;33.02;32.93;97901.97;5391855;26;20469;-80
2022/06/07 04:34:23;;;;;;;6.15;2.15;;;;;;;33.68;31.64;97909.66;5391703;26;20081;-80
2022/06/07 04:36:50;;;;;;;5.90;2.10;;;;;;;34.22;31.34;97908.25;5371756;26;20325;-80
2022/06/07 04:39:17;;;;;;;6.35;2.28;;;;;;;34.62;31.39;97899.84;5391503;26;20067;-80
2022/06/07 04:41:44;;;;;;;7.82;2.10;;;;;;;35.39;30.31;97906.38;5391544;26;20605;-80
2022/06/07 04:44:11;;;;;;;3.42;2.22;;;;;;;35.92;29.64;97908.31;5391695;26;20115;-80
2022/06/07 04:46:38;;;;;;;5.12;2.20;;;;;;;36.55;29.37;97904.97;5391674;26;20099;-80
2022/06/07 04:49:05;;;;;;;5.35;2.28;;;;;;;36.94;29.08;97907.97;5391336;26;20115;-81
2022/06/07 04:51:35;;;;;;;3.25;1.92;;;;;;;37.67;27.78;97906.44;5391729;26;20126;-81
2022/06/07 04:54:02;;;;;;;3.42;1.80;;;;;;;38.15;27.12;97898.63;5371613;26;20118;-81
2022/06/07 04:56:32;;;;;;;5.30;2.25;;;;;;;38.65;26.71;97905.03;5391490;26;20123;-81
2022/06/07 04:59:00;;;;;;;5.37;2.15;;;;;;;39.00;25.78;97904.69;5391499;26;20674;-80
2022/06/07 05:01:33;;;;;;;6.03;1.83;;;;;;;39.69;25.23;97901.44;5371646;26;20514;-80
2022/06/07 05:04:00;;;;;;;5.60;2.25;;;;;;;40.40;24.65;97902.78;5371042;26;20062;-80
2022/06/07 05:06:38;;;;;;;3.78;2.25;;;;;;;40.90;23.97;97901.50;5391647;26;20419;-80
2022/06/07 05:09:22;;;;;;;6.82;2.08;;;;;;;41.20;23.88;97899.97;5391419;26;20075;-81
2022/06/07 05:11:50;;;;;;;3.47;2.08;;;;;;;41.43;24.16;97914.94;5372325;26;20426;-81
2022/06/07 05:14:18;;;;;;;2.62;1.92;;;;;;;41.73;23.16;97911.50;5391619;26;20142;-81
2022/06/07 05:16:45;;;;;;;3.00;1.80;;;;;;;42.34;21.67;97915.03;5390923;26;20044;-81
2022/06/07 05:19:12;;;;;;;3.95;1.80;;;;;;;42.51;22.08;97914.69;5391445;26;20064;-81
2022/06/07 05:21:40;;;;;;;4.97;2.33;;;;;;;42.39;22.54;97909.59;5391633;26;20067;-81
2022/06/07 05:24:07;;;;;;;2.87;2.00;;;;;;;42.05;22.25;97917.47;5391538;26;20071;-81
2022/06/07 05:26:44;;;;;;;2.72;1.90;;;;;;;42.06;21.54;97915.56;5391740;26;20123;-81
2022/06/07 05:29:22;;;;;;;3.80;1.87;;;;;;;42.28;22.04;97918.81;5391394;26;20114;-80
2022/06/07 05:31:49;;;;;;;2.90;1.90;;;;;;;42.26;21.33;97914.75;5391581;26;20060;-79
2022/06/07 05:34:17;;;;;;;2.87;1.90;;;;;;;42.43;20.66;97913.37;5391770;26;20047;-80
2022/06/07 05:36:44;;;;;;;5.68;2.42;;;;;;;42.46;21.17;97920.16;5391759;26;20095;-80
2022/06/07 05:39:20;;;;;;;5.30;2.10;;;;;;;42.74;22.19;97924.97;5391204;26;20060;-80
2022/06/07 05:41:47;;;;;;;5.75;1.90;;;;;;;42.71;21.90;97920.09;5391660;26;20107;-80
2022/06/07 05:44:14;;;;;;;4.15;1.90;;;;;;;42.63;22.08;97923.38;5391416;26;20067;-80
2022/06/07 05:46:42;;;;;;;4.80;2.30;;;;;;;43.01;21.47;97923.81;5391166;26;20446;-80
2022/06/07 05:49:10;;;;;;;5.62;1.90;;;;;;;43.29;20.95;97916.91;5371333;26;20075;-81
2022/06/07 05:51:38;;;;;;;3.10;1.77;;;;;;;43.11;21.06;97928.41;5391208;26;20063;-81
2022/06/07 05:54:08;;;;;;;4.35;2.17;;;;;;;43.20;19.89;97916.69;5388451;26;20123;-80
2022/06/07 05:56:45;;;;;;;10.73;2.00;;;;;;;40.99;22.40;97902.63;5388680;26;20056;-81
2022/06/07 05:59:13;;;;;;;3.58;1.83;;;;;;;41.43;21.74;97906.81;5390196;26;20085;-80
2022/06/07 06:01:43;;;;;;;3.47;2.00;;;;;;;39.68;24.29;97906.03;5390742;26;20068;-79
2022/06/07 06:04:10;;;;;;;3.47;2.17;;;;;;;35.85;28.96;97897.66;5389447;26;20052;-79
2022/06/07 06:06:38;;;;;;;5.40;2.00;;;;;;;34.87;30.29;97892.53;5390133;26;20104;-79
2022/06/07 06:11:51;;;;;;;4.97;2.33;;;;;;;30.78;37.20;97882.91;5390918;26;20107;-78
2022/06/07 06:14:18;;;;;;;5.72;2.30;;;;;;;31.25;38.39;97896.44;5389859;26;20130;-79
2022/06/07 06:16:45;;;;;;;4.45;2.15;;;;;;;31.14;37.24;97886.31;5390135;26;20523;-78
2022/06/07 06:19:13;;;;;;;3.83;2.20;;;;;;;29.70;40.76;97895.81;5391480;26;20108;-81
2022/06/07 06:21:43;;;;;;;3.53;2.17;;;;;;;29.77;41.11;97896.66;5390083;26;20119;-80
2022/06/07 06:24:11;;;;;;;4.57;2.00;;;;;;;29.35;41.76;97885.81;5369738;26;20048;-81
2022/06/07 06:26:39;;;;;;;4.65;2.70;;;;;;;30.00;41.54;97880.53;5390648;26;20072;-81
2022/06/07 06:29:08;;;;;;;5.78;2.30;;;;;;;30.18;40.21;97892.34;5391688;26;20412;-81
2022/06/07 06:31:36;;;;;;;4.50;2.20;;;;;;;30.27;41.54;97887.69;5390742;26;20119;-81
2022/06/07 06:34:03;;;;;;;8.00;2.30;;;;;;;30.86;39.76;97887.25;5389467;26;20052;-80
2022/06/07 06:36:31;;;;;;;4.47;2.20;;;;;;;31.45;38.88;97888.47;5390619;26;20142;-80
2022/06/07 06:38:58;;;;;;;3.28;2.10;;;;;;;30.94;38.77;97881.72;5390773;26;20461;-81
2022/06/07 06:41:28;;;;;;;5.60;2.20;;;;;;;31.48;37.53;97888.09;5370522;26;20066;-81
2022/06/07 06:43:56;;;;;;;6.12;2.10;;;;;;;31.41;38.71;97879.25;5389873;26;20051;-82
2022/06/07 06:46:35;;;;;;;5.55;2.40;;;;;;;31.86;37.21;97877.69;5390924;26;20047;-81
2022/06/07 06:49:03;;;;;;;6.68;2.20;;;;;;;31.21;38.99;97874.69;5390302;26;20094;-82
2022/06/07 06:51:30;;;;;;;2.97;1.73;;;;;;;31.90;35.81;97874.44;5390393;26;20423;-78
2022/06/07 06:53:58;;;;;;;6.72;2.37;;;;;;;31.32;37.40;97866.13;5389650;26;20062;-78
2022/06/07 06:56:26;;;;;;;4.62;2.03;;;;;;;31.78;36.33;97869.88;5389243;26;20072;-79
2022/06/07 06:58:53;;;;;;;4.25;2.00;;;;;;;31.68;35.60;97863.06;5390165;26;20135;-79
2022/06/07 07:01:27;;;;;;;3.58;1.87;;;;;;;31.77;34.81;97865.59;5390411;26;20083;-79
2022/06/07 07:03:55;;;;;;;3.75;1.95;;;;;;;32.59;33.80;97870.44;5389353;26;20061;-79
2022/06/07 07:06:22;;;;;;;4.50;2.03;;;;;;;30.65;36.69;97860.72;5370240;26;20110;-79
2022/06/07 07:08:49;;;;;;;6.22;2.10;;;;;;;31.15;37.36;97863.97;5389637;26;20056;-79
2022/06/07 07:11:18;;;;;;;3.17;1.60;;;;;;;31.35;35.80;97868.38;5390316;26;20059;-79
2022/06/07 07:13:47;;;;;;;3.20;1.90;;;;;;;32.52;32.58;97872.31;5389379;26;20083;-78
2022/06/07 07:16:21;;;;;;;4.50;2.10;;;;;;;32.50;33.69;97875.19;5389407;26;20406;-79
2022/06/07 07:18:49;;;;;;;3.60;2.00;;;;;;;31.97;34.58;97871.75;5390297;26;20060;-79
2022/06/07 07:21:21;;;;;;;5.07;1.87;;;;;;;32.69;33.53;97880.69;5390483;26;20437;-79
2022/06/07 07:23:48;;;;;;;4.65;1.80;;;;;;;32.81;33.74;97874.47;5388670;26;20062;-79
2022/06/07 07:26:19;;;;;;;5.70;1.90;;;;;;;32.64;33.98;97877.81;5390252;26;20044;-79
2022/06/07 07:28:48;;;;;;;4.82;2.03;;;;;;;32.87;32.71;97880.88;5390115;26;20098;-79
2022/06/07 07:31:19;;;;;;;2.92;1.90;;;;;;;32.99;32.33;97884.53;5389936;26;20119;-79
2022/06/07 07:33:46;;;;;;;4.50;1.90;;;;;;;33.09;32.11;97881.41;5389338;26;20043;-79
2022/06/07 07:36:14;;;;;;;5.20;1.90;;;;;;;33.16;33.78;97873.31;5370329;26;20063;-79
2022/06/07 07:38:41;;;;;;;2.80;1.80;;;;;;;32.51;33.38;97868.00;5389945;26;20060;-79
2022/06/07 07:41:21;;;;;;;3.15;1.90;;;;;;;33.24;32.83;97873.91;5390370;26;20127;-79
2022/06/07 07:43:50;;;;;;;2.42;1.80;;;;;;;33.60;32.19;97865.28;5389349;26;20067;-79
2022/06/07 07:46:19;;;;;;;3.45;1.80;;;;;;;33.22;33.21;97875.16;5391133;26;20047;-78
2022/06/07 07:48:46;;;;;;;4.40;2.03;;;;;;;32.50;34.65;97869.84;5370522;26;20074;-78
2022/06/07 07:51:21;;;;;;;3.17;1.80;;;;;;;33.61;32.65;97876.81;5390918;26;20072;-78
2022/06/07 07:53:52;;;;;;;5.03;2.35;;;;;;;31.98;36.13;97872.56;5390341;26;20759;-78
2022/06/07 07:56:21;;;;;;;3.40;1.98;;;;;;;32.74;36.58;97871.00;5390719;26;20134;-78
2022/06/07 07:58:48;;;;;;;3.33;1.90;;;;;;;32.70;35.21;97877.00;5390118;26;20087;-79
2022/06/07 08:01:17;;;;;;;4.28;1.92;;;;;;;33.25;34.92;97869.38;5392097;26;20421;-78
2022/06/07 08:03:44;;;;;;;6.90;2.40;;;;;;;33.90;31.94;97873.50;5390368;26;20052;-76
2022/06/07 08:06:17;;;;;;;4.93;2.10;;;;;;;32.48;36.67;97866.56;5390609;26;20134;-77
2022/06/07 08:08:46;;;;;;;4.65;2.12;;;;;;;32.84;36.11;97867.09;5390724;26;20116;-77
2022/06/07 08:11:14;;;;;;;4.07;2.00;;;;;;;33.44;34.09;97865.78;5390075;26;20442;-77
2022/06/07 08:13:44;;;;;;;4.32;2.30;;;;;;;32.47;36.07;97870.28;5369362;26;20123;-77
2022/06/07 08:16:13;;;;;;;5.43;2.10;;;;;;;33.12;34.88;97869.44;5390654;26;20066;-78
2022/06/07 08:18:41;;;;;;;4.75;1.98;;;;;;;33.07;33.77;97862.06;5390674;26;20142;-77
2022/06/07 08:21:12;;;;;;;3.20;1.80;;;;;;;33.37;34.71;97868.50;5390563;26;20402;-77
2022/06/07 08:23:39;;;;;;;4.43;1.90;;;;;;;33.80;31.57;97872.31;5390049;26;20057;-77
2022/06/07 08:26:07;;;;;;;2.95;1.90;;;;;;;34.48;32.53;97867.03;5390402;26;20873;-77
2022/06/07 08:28:35;;;;;;;3.35;1.83;;;;;;;34.73;31.58;97866.94;5390383;26;20070;-77
2022/06/07 08:31:03;;;;;;;9.40;2.25;;;;;;;33.05;33.35;97866.78;5391019;26;20056;-79
2022/06/07 08:39:08;;;;;;;3.80;2.10;;;;;;;33.76;32.38;97871.94;5373664;26;20486;-79
2022/06/07 08:41:57;;;;;;;4.65;2.00;;;;;;;34.25;31.02;97867.66;5390559;26;20056;-79
2022/06/07 08:44:36;;;;;;;2.75;2.00;;;;;;;34.26;32.26;97852.41;5390707;26;20057;-79
2022/06/07 08:47:11;;;;;;;3.85;1.80;;;;;;;33.32;31.98;97870.16;5371246;26;20057;-78
2022/06/07 08:49:38;;;;;;;3.03;1.80;;;;;;;33.73;31.96;97859.00;5371056;26;20063;-79
2022/06/07 08:52:12;;;;;;;3.95;1.90;;;;;;;33.31;32.17;97855.16;5391794;26;20131;-79
2022/06/07 08:54:40;;;;;;;3.85;1.80;;;;;;;33.16;32.91;97863.44;5371116;26;20115;-79
2022/06/07 08:57:23;;;;;;;3.72;2.00;;;;;;;32.66;33.83;97865.91;5391537;26;20085;-79
2022/06/07 09:00:05;;;;;;;3.85;1.90;;;;;;;33.52;32.95;97862.06;5391392;26;20421;-79
2022/06/07 09:03:07;;;;;;;3.72;1.95;;;;;;;33.54;32.39;97855.44;5371003;26;20114;-78
2022/06/07 09:05:34;;;;;;;5.10;1.92;;;;;;;34.26;30.16;97855.09;5391435;26;20047;-79
2022/06/07 09:08:02;;;;;;;5.78;1.98;;;;;;;34.61;29.71;97856.16;5390894;26;20123;-79
2022/06/07 09:13:23;;;;;;;3.40;1.62;;;;;;;33.80;30.42;97851.72;5391829;26;20090;-79
2022/06/07 09:15:53;;;;;;;2.80;1.70;;;;;;;33.63;31.05;97854.16;5390886;26;20108;-79
2022/06/07 09:18:25;;;;;;;5.68;1.77;;;;;;;33.04;30.94;97852.63;5391534;26;20427;-79
2022/06/07 09:21:07;;;;;;;3.17;1.90;;;;;;;33.14;30.91;97849.47;5371758;26;20074;-78
2022/06/07 09:23:43;;;;;;;2.80;1.77;;;;;;;33.78;29.83;97850.31;5391222;26;20066;-78
2022/06/07 09:26:28;;;;;;;3.28;1.62;;;;;;;33.55;31.36;97841.03;5371556;26;20134;-78
2022/06/07 09:29:16;;;;;;;2.67;1.70;;;;;;;32.92;31.14;97842.81;5391210;26;20079;-78
2022/06/07 09:31:44;;;;;;;3.08;1.55;;;;;;;33.86;30.34;97834.81;5371462;26;20067;-79
2022/06/07 09:34:27;;;;;;;2.55;1.62;;;;;;;34.29;30.10;97831.34;5392189;26;20115;-76
2022/06/07 09:37:03;;;;;;;2.00;1.70;;;;;;;33.55;30.14;97837.53;5391468;26;20352;-77
2022/06/07 09:39:34;;;;;;;2.92;1.50;;;;;;;33.97;30.06;97827.97;5353560;26;20352;-77
2022/06/07 09:42:24;;;;;;;4.85;1.90;;;;;;;33.28;30.50;97824.31;5391627;26;20406;-77
2022/06/07 09:45:11;;;;;;;4.00;1.67;;;;;;;34.30;29.98;97821.44;5371377;26;20074;-77
2022/06/07 09:47:38;;;;;;;2.35;1.48;;;;;;;33.59;30.47;97825.34;5372085;26;20103;-77
2022/06/07 09:50:32;;;;;;;1.75;1.40;;;;;;;34.06;28.49;97805.22;5391484;26;20048;-77
2022/06/07 09:53:08;;;;;;;4.93;1.50;;;;;;;34.18;31.58;97810.66;5392276;26;20137;-78
2022/06/07 09:55:35;;;;;;;3.12;1.45;;;;;;;32.59;30.06;97813.53;5371758;26;20075;-77
2022/06/07 09:58:22;;;;;;;3.67;1.77;;;;;;;33.48;29.71;97813.50;5390946;26;20078;-78
2022/06/07 10:00:54;;;;;;;3.10;1.40;;;;;;;33.51;30.46;97812.28;5391419;26;20047;-78
2022/06/07 10:03:39;;;;;;;3.42;1.48;;;;;;;33.84;30.56;97807.47;5371608;26;20070;-77
2022/06/07 10:06:32;;;;;;;3.65;1.52;;;;;;;33.91;28.65;97802.06;5370895;26;20059;-77
2022/06/07 10:09:36;;;;;;;1.80;1.25;;;;;;;34.32;28.98;97806.78;5391249;26;20052;-78
2022/06/07 10:12:17;;;;;;;6.15;1.60;;;;;;;34.58;28.80;97795.00;5391346;26;20405;-77
2022/06/07 10:15:03;;;;;;;3.40;1.58;;;;;;;33.52;29.33;97798.69;5391763;26;20075;-78
2022/06/07 10:17:52;;;;;;;1.73;1.25;;;;;;;33.32;31.59;97800.66;5391905;26;20059;-78
2022/06/07 10:20:30;;;;;;;4.70;1.80;;;;;;;33.12;30.50;97787.41;5370886;26;20059;-78
2022/06/07 10:23:11;;;;;;;3.30;1.40;;;;;;;32.67;34.79;97787.41;5390209;26;20053;-78
2022/06/07 10:26:15;;;;;;;2.05;1.27;;;;;;;33.79;30.48;97779.72;5371002;26;20143;-78
2022/06/07 10:28:47;;;;;;;3.47;1.17;;;;;;;34.10;30.86;97781.50;5392723;26;20123;-79
2022/06/07 10:31:43;;;;;;;2.80;1.40;;;;;;;33.92;28.59;97774.25;5391168;26;20064;-78
2022/06/07 10:34:27;;;;;;;3.62;1.58;;;;;;;33.08;32.25;97772.84;5390939;26;20079;-79
2022/06/07 10:37:17;;;;;;;2.05;1.50;;;;;;;33.04;31.03;97780.44;5391549;26;20081;-78
2022/06/07 10:40:08;;;;;;;1.62;1.30;;;;;;;33.35;31.33;97773.50;5372705;26;20063;-79
2022/06/07 10:42:48;;;;;;;2.33;1.60;;;;;;;33.15;30.04;97768.25;5392798;26;20104;-79
2022/06/07 10:45:21;;;;;;;3.80;1.60;;;;;;;32.55;31.78;97765.09;5391340;26;20047;-79
2022/06/07 10:48:37;;;;;;;3.58;1.70;;;;;;;33.77;31.41;97763.06;5370684;26;20107;-79
2022/06/07 10:54:12;;;;;;;1.95;1.35;;;;;;;34.03;31.26;97759.31;5391003;26;20103;-79
2022/06/07 10:56:45;;;;;;;1.95;1.12;;;;;;;34.55;29.31;97749.06;5391340;26;20059;-79
2022/06/07 10:59:20;;;;;;;1.30;0.90;;;;;;;34.39;27.43;97745.16;5391688;26;20107;-78
2022/06/07 11:01:52;;;;;;;2.05;1.30;;;;;;;33.39;28.50;97750.66;5390777;26;20126;-78
2022/06/07 11:10:06;;;;;;;3.35;1.48;;;;;;;32.53;30.89;97732.41;5373987;26;20469;-78
2022/06/07 11:12:45;;;;;;;2.85;1.48;;;;;;;31.56;30.94;97730.56;5371526;26;20142;-79
2022/06/07 11:15:25;;;;;;;3.00;1.50;;;;;;;32.80;30.94;97733.09;5390780;26;20052;-78
2022/06/07 11:18:07;;;;;;;3.60;1.50;;;;;;;33.90;30.49;97720.16;5390729;26;20063;-79
2022/06/07 11:21:18;;;;;;;2.37;1.40;;;;;;;34.68;29.23;97727.50;5391948;26;20122;-79
2022/06/07 11:24:22;;;;;;;13.07;2.28;;;;;;;33.49;30.86;97713.50;5372177;26;20071;-79
2022/06/07 11:27:10;;;;;;;2.05;1.40;;;;;;;33.99;30.06;97713.47;5393531;26;20054;-78
2022/06/07 11:29:37;;;;;;;9.38;1.85;;;;;;;34.91;28.99;97713.38;5383443;26;20080;-80
2022/06/07 11:32:36;;;;;;;5.30;1.58;;;;;;;32.52;33.27;97723.56;5397287;26;20036;-79
2022/06/07 11:35:41;;;;;;;1.98;1.33;;;;;;;33.19;32.16;97708.00;5376549;26;20077;-79
2022/06/07 11:38:21;;;;;;;2.92;1.50;;;;;;;32.86;31.40;97716.25;5398007;26;20064;-80
2022/06/07 11:40:51;;;;;;;3.10;1.52;;;;;;;32.17;31.79;97711.59;5400432;26;20118;-80
2022/06/07 11:43:48;;;;;;;2.10;1.50;;;;;;;32.50;31.61;97709.63;5399924;26;20079;-80
2022/06/07 11:46:27;;;;;;;2.85;1.30;;;;;;;31.31;32.31;97703.72;5398753;26;20059;-80
2022/06/07 11:49:24;;;;;;;2.92;1.40;;;;;;;33.65;31.98;97710.28;5403119;26;20055;-79
2022/06/07 11:52:19;;;;;;;2.95;1.60;;;;;;;33.12;30.27;97703.72;5395357;26;20040;-78
2022/06/07 11:54:54;;;;;;;3.05;1.50;;;;;;;34.39;30.46;97711.16;5380498;26;20060;-78
2022/06/07 11:58:04;;;;;;;2.87;1.60;;;;;;;34.24;29.48;97702.66;5398834;26;20060;-78
2022/06/07 12:00:31;;;;;;;3.75;1.60;;;;;;;34.28;30.09;97701.19;5399256;26;20058;-78
2022/06/07 12:02:58;;;;;;;6.05;1.50;;;;;;;34.12;30.42;97697.25;5399659;26;20085;-78
2022/06/07 12:05:37;;;;;;;3.17;1.83;;;;;;;34.09;30.53;97694.19;5396764;26;20056;-79
2022/06/07 12:08:32;;;;;;;2.25;1.60;;;;;;;33.47;32.40;97694.19;5381470;26;20051;-79
2022/06/07 12:11:05;;;;;;;4.22;1.65;;;;;;;34.29;30.15;97689.44;5405255;26;20067;-78
2022/06/07 12:13:49;;;;;;;3.08;1.80;;;;;;;34.62;29.57;97686.34;5408289;26;20055;-79
2022/06/07 12:16:24;;;;;;;5.12;1.80;;;;;;;33.36;32.42;97679.69;5389518;26;20029;-79
2022/06/07 12:18:56;;;;;;;3.37;1.70;;;;;;;33.47;30.33;97678.16;5401353;26;20030;-79
2022/06/07 12:21:23;;;;;;;4.30;1.70;;;;;;;33.88;30.08;97680.22;5397530;26;20074;-79
2022/06/07 12:23:59;;;;;;;3.47;1.65;;;;;;;33.29;29.69;97670.06;5397122;26;20047;-79
2022/06/07 12:26:29;;;;;;;2.17;1.65;;;;;;;34.20;30.60;97675.53;5392952;26;20060;-79